sensor_id;sensor_type;location;lat;lon;timestamp;temperature;humidity
15959;DHT22;8078;47.822;9.402;2023-05-07T00:01:14;12.40;99.90
15959;DHT22;8078;47.822;9.402;2023-05-07T00:03:40;12.50;99.90
15959;DHT22;8078;47.822;9.402;2023-05-07T00:06:05;12.50;99.90
15959;DHT22;8078;47.822;9.402;2023-05-07T00:08:31;12.50;99.90
15959;DHT22;8078;47.822;9.402;2023-05-07T00:10:57;12.40;99.90
15959;DHT22;8078;47.822;9.402;2023-05-07T00:13:22;12.40;99.90
15959;DHT22;8078;47.822;9.402;2023-05-07T00:15:48;12.40;99.90
15959;DHT22;8078;47.822;9.402;2023-05-07T00:18:13;12.30;99.90
15959;DHT22;8078;47.822;9.402;2023-05-07T00:20:39;12.40;99.90
15959;DHT22;8078;47.822;9.402;2023-05-07T00:23:04;12.40;99.90
15959;DHT22;8078;47.822;9.402;2023-05-07T00:25:30;12.30;99.90
15959;DHT22;8078;47.822;9.402;2023-05-07T00:27:55;12.30;99.90
15959;DHT22;8078;47.822;9.402;2023-05-07T00:30:21;12.30;99.90
15959;DHT22;8078;47.822;9.402;2023-05-07T00:32:46;12.20;99.90
15959;DHT22;8078;47.822;9.402;2023-05-07T00:35:14;12.20;99.90
15959;DHT22;8078;47.822;9.402;2023-05-07T00:37:39;12.20;99.90
15959;DHT22;8078;47.822;9.402;2023-05-07T00:40:06;12.20;99.90
15959;DHT22;8078;47.822;9.402;2023-05-07T00:42:33;12.10;99.90
15959;DHT22;8078;47.822;9.402;2023-05-07T00:44:58;12.10;99.90
15959;DHT22;8078;47.822;9.402;2023-05-07T00:47:25;12.00;99.90
15959;DHT22;8078;47.822;9.402;2023-05-07T00:49:55;11.90;99.90
15959;DHT22;8078;47.822;9.402;2023-05-07T00:52:25;11.80;99.90
15959;DHT22;8078;47.822;9.402;2023-05-07T00:54:51;11.80;99.90
15959;DHT22;8078;47.822;9.402;2023-05-07T00:57:17;11.80;99.90
15959;DHT22;8078;47.822;9.402;2023-05-07T00:59:43;11.70;99.90
15959;DHT22;8078;47.822;9.402;2023-05-07T01:02:08;11.70;99.90
15959;DHT22;8078;47.822;9.402;2023-05-07T01:04:34;11.70;99.90
15959;DHT22;8078;47.822;9.402;2023-05-07T01:07:01;11.70;99.90
15959;DHT22;8078;47.822;9.402;2023-05-07T01:09:28;11.70;99.90
15959;DHT22;8078;47.822;9.402;2023-05-07T01:11:53;11.70;99.90
15959;DHT22;8078;47.822;9.402;2023-05-07T01:14:20;11.80;99.90
15959;DHT22;8078;47.822;9.402;2023-05-07T01:16:47;11.80;99.90
15959;DHT22;8078;47.822;9.402;2023-05-07T01:19:14;11.80;99.90
15959;DHT22;8078;47.822;9.402;2023-05-07T01:21:46;11.80;99.90
15959;DHT22;8078;47.822;9.402;2023-05-07T01:24:12;11.80;99.90
15959;DHT22;8078;47.822;9.402;2023-05-07T01:26:39;11.80;99.90
15959;DHT22;8078;47.822;9.402;2023-05-07T01:29:05;11.80;99.90
15959;DHT22;8078;47.822;9.402;2023-05-07T01:31:32;11.80;99.90
15959;DHT22;8078;47.822;9.402;2023-05-07T01:33:59;11.80;99.90
15959;DHT22;8078;47.822;9.402;2023-05-07T01:36:27;11.80;99.90
15959;DHT22;8078;47.822;9.402;2023-05-07T01:38:54;11.80;99.90
15959;DHT22;8078;47.822;9.402;2023-05-07T01:41:20;11.70;99.90
15959;DHT22;8078;47.822;9.402;2023-05-07T01:43:47;11.70;99.90
15959;DHT22;8078;47.822;9.402;2023-05-07T01:46:13;11.70;99.90
15959;DHT22;8078;47.822;9.402;2023-05-07T01:48:40;11.70;99.90
15959;DHT22;8078;47.822;9.402;2023-05-07T01:51:07;11.70;99.90
15959;DHT22;8078;47.822;9.402;2023-05-07T01:53:37;11.60;99.90
15959;DHT22;8078;47.822;9.402;2023-05-07T01:56:03;11.60;99.90
15959;DHT22;8078;47.822;9.402;2023-05-07T01:58:28;11.60;99.90
15959;DHT22;8078;47.822;9.402;2023-05-07T02:00:54;11.60;99.90
15959;DHT22;8078;47.822;9.402;2023-05-07T02:03:19;11.60;99.90
15959;DHT22;8078;47.822;9.402;2023-05-07T02:05:45;11.50;99.90
15959;DHT22;8078;47.822;9.402;2023-05-07T02:08:10;11.50;99.90
15959;DHT22;8078;47.822;9.402;2023-05-07T02:10:36;11.50;99.90
15959;DHT22;8078;47.822;9.402;2023-05-07T02:13:02;11.40;99.90
15959;DHT22;8078;47.822;9.402;2023-05-07T02:15:27;11.40;99.90
15959;DHT22;8078;47.822;9.402;2023-05-07T02:18:04;11.40;99.90
15959;DHT22;8078;47.822;9.402;2023-05-07T02:20:30;11.40;99.90
15959;DHT22;8078;47.822;9.402;2023-05-07T02:22:56;11.40;99.90
15959;DHT22;8078;47.822;9.402;2023-05-07T02:25:21;11.40;99.90
15959;DHT22;8078;47.822;9.402;2023-05-07T02:27:47;11.40;99.90
15959;DHT22;8078;47.822;9.402;2023-05-07T02:30:13;11.40;99.90
15959;DHT22;8078;47.822;9.402;2023-05-07T02:32:38;11.40;99.90
15959;DHT22;8078;47.822;9.402;2023-05-07T02:35:05;11.40;99.90
15959;DHT22;8078;47.822;9.402;2023-05-07T02:37:30;11.30;99.90
15959;DHT22;8078;47.822;9.402;2023-05-07T02:39:56;11.30;99.90
15959;DHT22;8078;47.822;9.402;2023-05-07T02:42:21;11.20;99.90
15959;DHT22;8078;47.822;9.402;2023-05-07T02:44:47;11.20;99.90
15959;DHT22;8078;47.822;9.402;2023-05-07T02:47:14;11.10;99.90
15959;DHT22;8078;47.822;9.402;2023-05-07T02:49:40;11.10;99.90
15959;DHT22;8078;47.822;9.402;2023-05-07T02:52:06;11.00;99.90
15959;DHT22;8078;47.822;9.402;2023-05-07T02:54:32;11.10;99.90
15959;DHT22;8078;47.822;9.402;2023-05-07T02:56:58;11.10;99.90
15959;DHT22;8078;47.822;9.402;2023-05-07T02:59:23;11.00;99.90
15959;DHT22;8078;47.822;9.402;2023-05-07T03:01:50;11.00;99.90
15959;DHT22;8078;47.822;9.402;2023-05-07T03:04:16;10.90;99.90
15959;DHT22;8078;47.822;9.402;2023-05-07T03:06:41;10.90;99.90
15959;DHT22;8078;47.822;9.402;2023-05-07T03:09:07;10.90;99.90
15959;DHT22;8078;47.822;9.402;2023-05-07T03:11:33;10.80;99.90
15959;DHT22;8078;47.822;9.402;2023-05-07T03:13:58;10.70;99.90
15959;DHT22;8078;47.822;9.402;2023-05-07T03:16:24;10.70;99.90
15959;DHT22;8078;47.822;9.402;2023-05-07T03:18:49;10.70;99.90
15959;DHT22;8078;47.822;9.402;2023-05-07T03:21:15;10.60;99.90
15959;DHT22;8078;47.822;9.402;2023-05-07T03:23:40;10.60;99.90
15959;DHT22;8078;47.822;9.402;2023-05-07T03:26:06;10.60;99.90
15959;DHT22;8078;47.822;9.402;2023-05-07T03:28:31;10.60;99.90
15959;DHT22;8078;47.822;9.402;2023-05-07T03:30:57;10.60;99.90
15959;DHT22;8078;47.822;9.402;2023-05-07T03:33:23;10.50;99.90
15959;DHT22;8078;47.822;9.402;2023-05-07T03:35:49;10.60;99.90
15959;DHT22;8078;47.822;9.402;2023-05-07T03:38:14;10.70;99.90
15959;DHT22;8078;47.822;9.402;2023-05-07T03:40:40;10.70;99.90
15959;DHT22;8078;47.822;9.402;2023-05-07T03:43:05;10.70;99.90
15959;DHT22;8078;47.822;9.402;2023-05-07T03:45:31;10.70;99.90
15959;DHT22;8078;47.822;9.402;2023-05-07T03:47:56;10.80;99.90
15959;DHT22;8078;47.822;9.402;2023-05-07T03:50:22;10.90;99.90
15959;DHT22;8078;47.822;9.402;2023-05-07T03:52:47;10.90;99.90
15959;DHT22;8078;47.822;9.402;2023-05-07T03:55:13;10.80;99.90
15959;DHT22;8078;47.822;9.402;2023-05-07T03:57:38;10.80;99.90
15959;DHT22;8078;47.822;9.402;2023-05-07T04:00:04;10.70;99.90
15959;DHT22;8078;47.822;9.402;2023-05-07T04:02:32;10.70;99.90
15959;DHT22;8078;47.822;9.402;2023-05-07T04:04:58;10.70;99.90
15959;DHT22;8078;47.822;9.402;2023-05-07T04:07:24;10.60;99.90
15959;DHT22;8078;47.822;9.402;2023-05-07T04:09:49;10.60;99.90
15959;DHT22;8078;47.822;9.402;2023-05-07T04:12:15;10.70;99.90
15959;DHT22;8078;47.822;9.402;2023-05-07T04:14:40;10.70;99.90
15959;DHT22;8078;47.822;9.402;2023-05-07T04:17:06;10.70;99.90
15959;DHT22;8078;47.822;9.402;2023-05-07T04:19:33;10.80;99.90
15959;DHT22;8078;47.822;9.402;2023-05-07T04:21:59;10.80;99.90
15959;DHT22;8078;47.822;9.402;2023-05-07T04:24:24;10.90;99.90
15959;DHT22;8078;47.822;9.402;2023-05-07T04:26:50;11.00;99.90
15959;DHT22;8078;47.822;9.402;2023-05-07T04:29:16;11.10;99.90
15959;DHT22;8078;47.822;9.402;2023-05-07T04:31:42;11.20;99.90
15959;DHT22;8078;47.822;9.402;2023-05-07T04:34:10;11.30;99.90
15959;DHT22;8078;47.822;9.402;2023-05-07T04:36:37;11.40;99.90
15959;DHT22;8078;47.822;9.402;2023-05-07T04:39:03;11.50;99.90
15959;DHT22;8078;47.822;9.402;2023-05-07T04:41:29;11.70;99.90
15959;DHT22;8078;47.822;9.402;2023-05-07T04:43:55;11.80;99.90
15959;DHT22;8078;47.822;9.402;2023-05-07T04:46:22;12.00;99.90
15959;DHT22;8078;47.822;9.402;2023-05-07T04:48:47;12.20;99.90
15959;DHT22;8078;47.822;9.402;2023-05-07T04:51:13;12.40;99.90
15959;DHT22;8078;47.822;9.402;2023-05-07T04:53:38;12.60;99.90
15959;DHT22;8078;47.822;9.402;2023-05-07T04:56:04;12.80;99.90
15959;DHT22;8078;47.822;9.402;2023-05-07T04:58:29;13.00;99.90
15959;DHT22;8078;47.822;9.402;2023-05-07T05:00:57;13.30;99.90
15959;DHT22;8078;47.822;9.402;2023-05-07T05:03:23;13.60;99.90
15959;DHT22;8078;47.822;9.402;2023-05-07T05:05:49;13.90;99.90
15959;DHT22;8078;47.822;9.402;2023-05-07T05:08:15;14.10;99.90
15959;DHT22;8078;47.822;9.402;2023-05-07T05:10:40;14.40;99.90
15959;DHT22;8078;47.822;9.402;2023-05-07T05:13:07;14.60;99.90
15959;DHT22;8078;47.822;9.402;2023-05-07T05:15:33;14.80;99.90
15959;DHT22;8078;47.822;9.402;2023-05-07T05:17:59;15.00;99.90
15959;DHT22;8078;47.822;9.402;2023-05-07T05:20:24;15.20;99.90
15959;DHT22;8078;47.822;9.402;2023-05-07T05:22:50;15.20;99.90
15959;DHT22;8078;47.822;9.402;2023-05-07T05:25:15;15.40;99.90
15959;DHT22;8078;47.822;9.402;2023-05-07T05:27:41;15.70;99.90
15959;DHT22;8078;47.822;9.402;2023-05-07T05:30:07;15.80;99.90
15959;DHT22;8078;47.822;9.402;2023-05-07T05:32:32;15.90;99.90
15959;DHT22;8078;47.822;9.402;2023-05-07T05:34:58;16.00;99.90
15959;DHT22;8078;47.822;9.402;2023-05-07T05:37:24;15.80;99.90
15959;DHT22;8078;47.822;9.402;2023-05-07T05:39:50;15.90;99.90
15959;DHT22;8078;47.822;9.402;2023-05-07T05:42:15;16.10;99.90
15959;DHT22;8078;47.822;9.402;2023-05-07T05:44:41;15.90;99.90
15959;DHT22;8078;47.822;9.402;2023-05-07T05:47:06;16.00;99.90
15959;DHT22;8078;47.822;9.402;2023-05-07T05:49:32;15.90;99.90
15959;DHT22;8078;47.822;9.402;2023-05-07T05:51:58;15.90;99.90
15959;DHT22;8078;47.822;9.402;2023-05-07T05:54:23;16.10;99.90
15959;DHT22;8078;47.822;9.402;2023-05-07T05:56:49;16.20;99.90
15959;DHT22;8078;47.822;9.402;2023-05-07T05:59:14;16.20;99.90
15959;DHT22;8078;47.822;9.402;2023-05-07T06:01:40;16.40;99.90
15959;DHT22;8078;47.822;9.402;2023-05-07T06:04:05;16.60;99.90
15959;DHT22;8078;47.822;9.402;2023-05-07T06:06:31;16.70;99.90
15959;DHT22;8078;47.822;9.402;2023-05-07T06:08:57;16.90;99.90
15959;DHT22;8078;47.822;9.402;2023-05-07T06:11:23;17.00;99.90
15959;DHT22;8078;47.822;9.402;2023-05-07T06:13:48;17.20;99.90
15959;DHT22;8078;47.822;9.402;2023-05-07T06:16:14;17.60;99.90
15959;DHT22;8078;47.822;9.402;2023-05-07T06:18:40;17.90;99.90
15959;DHT22;8078;47.822;9.402;2023-05-07T06:21:06;18.30;99.90
15959;DHT22;8078;47.822;9.402;2023-05-07T06:23:31;18.50;99.90
15959;DHT22;8078;47.822;9.402;2023-05-07T06:25:57;18.80;99.90
15959;DHT22;8078;47.822;9.402;2023-05-07T06:28:25;19.20;99.90
15959;DHT22;8078;47.822;9.402;2023-05-07T06:30:51;19.60;99.90
15959;DHT22;8078;47.822;9.402;2023-05-07T06:33:16;19.90;99.90
15959;DHT22;8078;47.822;9.402;2023-05-07T06:35:42;20.00;99.90
15959;DHT22;8078;47.822;9.402;2023-05-07T06:38:08;20.20;99.90
15959;DHT22;8078;47.822;9.402;2023-05-07T06:40:33;20.00;99.90
15959;DHT22;8078;47.822;9.402;2023-05-07T06:42:59;20.00;99.90
15959;DHT22;8078;47.822;9.402;2023-05-07T06:45:24;20.10;99.90
15959;DHT22;8078;47.822;9.402;2023-05-07T06:47:50;18.80;99.90
15959;DHT22;8078;47.822;9.402;2023-05-07T06:50:16;18.20;99.90
15959;DHT22;8078;47.822;9.402;2023-05-07T06:52:42;17.20;99.90
15959;DHT22;8078;47.822;9.402;2023-05-07T06:55:08;17.50;99.90
15959;DHT22;8078;47.822;9.402;2023-05-07T06:57:34;18.00;99.90
15959;DHT22;8078;47.822;9.402;2023-05-07T07:00:00;17.90;99.90
15959;DHT22;8078;47.822;9.402;2023-05-07T07:02:25;17.60;99.90
15959;DHT22;8078;47.822;9.402;2023-05-07T07:04:51;17.10;99.90
15959;DHT22;8078;47.822;9.402;2023-05-07T07:07:16;17.10;99.90
15959;DHT22;8078;47.822;9.402;2023-05-07T07:09:42;16.90;99.90
15959;DHT22;8078;47.822;9.402;2023-05-07T07:12:07;17.10;99.90
15959;DHT22;8078;47.822;9.402;2023-05-07T07:14:33;17.00;99.90
15959;DHT22;8078;47.822;9.402;2023-05-07T07:16:59;17.50;99.90
15959;DHT22;8078;47.822;9.402;2023-05-07T07:19:26;17.70;99.90
15959;DHT22;8078;47.822;9.402;2023-05-07T07:21:51;18.10;99.90
15959;DHT22;8078;47.822;9.402;2023-05-07T07:24:17;18.80;99.90
15959;DHT22;8078;47.822;9.402;2023-05-07T07:26:46;19.10;99.90
15959;DHT22;8078;47.822;9.402;2023-05-07T07:29:12;18.70;99.90
15959;DHT22;8078;47.822;9.402;2023-05-07T07:31:37;17.70;99.90
15959;DHT22;8078;47.822;9.402;2023-05-07T07:34:03;17.00;99.90
15959;DHT22;8078;47.822;9.402;2023-05-07T07:36:28;17.00;99.90
15959;DHT22;8078;47.822;9.402;2023-05-07T07:38:54;16.40;99.90
15959;DHT22;8078;47.822;9.402;2023-05-07T07:41:19;15.90;99.90
15959;DHT22;8078;47.822;9.402;2023-05-07T07:43:45;16.00;99.90
15959;DHT22;8078;47.822;9.402;2023-05-07T07:46:12;15.90;99.90
15959;DHT22;8078;47.822;9.402;2023-05-07T07:48:37;16.30;99.90
15959;DHT22;8078;47.822;9.402;2023-05-07T07:51:03;16.30;99.90
15959;DHT22;8078;47.822;9.402;2023-05-07T07:53:29;16.30;99.90
15959;DHT22;8078;47.822;9.402;2023-05-07T07:55:54;16.50;99.90
15959;DHT22;8078;47.822;9.402;2023-05-07T07:58:20;16.70;99.90
15959;DHT22;8078;47.822;9.402;2023-05-07T08:00:47;17.40;99.90
15959;DHT22;8078;47.822;9.402;2023-05-07T08:03:13;17.50;99.90
15959;DHT22;8078;47.822;9.402;2023-05-07T08:05:39;17.50;99.90
15959;DHT22;8078;47.822;9.402;2023-05-07T08:08:05;17.90;99.90
15959;DHT22;8078;47.822;9.402;2023-05-07T08:10:31;17.60;99.90
15959;DHT22;8078;47.822;9.402;2023-05-07T08:13:00;17.50;99.90
15959;DHT22;8078;47.822;9.402;2023-05-07T08:15:25;17.80;99.90
15959;DHT22;8078;47.822;9.402;2023-05-07T08:17:51;18.50;99.90
15959;DHT22;8078;47.822;9.402;2023-05-07T08:20:16;17.50;99.90
15959;DHT22;8078;47.822;9.402;2023-05-07T08:22:42;17.70;99.90
15959;DHT22;8078;47.822;9.402;2023-05-07T08:25:08;18.10;99.90
15959;DHT22;8078;47.822;9.402;2023-05-07T08:27:34;18.50;99.90
15959;DHT22;8078;47.822;9.402;2023-05-07T08:29:59;19.10;99.90
15959;DHT22;8078;47.822;9.402;2023-05-07T08:32:25;19.10;99.90
15959;DHT22;8078;47.822;9.402;2023-05-07T08:34:50;18.20;99.90
15959;DHT22;8078;47.822;9.402;2023-05-07T08:37:16;17.40;99.90
15959;DHT22;8078;47.822;9.402;2023-05-07T08:39:42;17.00;99.90
15959;DHT22;8078;47.822;9.402;2023-05-07T08:42:09;16.80;99.90
15959;DHT22;8078;47.822;9.402;2023-05-07T08:44:38;16.70;99.90
15959;DHT22;8078;47.822;9.402;2023-05-07T08:47:06;16.90;99.90
15959;DHT22;8078;47.822;9.402;2023-05-07T08:49:33;17.00;99.90
15959;DHT22;8078;47.822;9.402;2023-05-07T08:51:59;17.00;99.90
15959;DHT22;8078;47.822;9.402;2023-05-07T08:54:25;16.80;99.90
15959;DHT22;8078;47.822;9.402;2023-05-07T08:56:51;16.50;99.90
15959;DHT22;8078;47.822;9.402;2023-05-07T08:59:17;16.40;99.90
15959;DHT22;8078;47.822;9.402;2023-05-07T09:01:42;16.70;99.90
15959;DHT22;8078;47.822;9.402;2023-05-07T09:04:08;16.90;99.90
15959;DHT22;8078;47.822;9.402;2023-05-07T09:06:34;17.20;99.90
15959;DHT22;8078;47.822;9.402;2023-05-07T09:09:00;17.10;99.90
15959;DHT22;8078;47.822;9.402;2023-05-07T09:11:27;17.50;99.90
15959;DHT22;8078;47.822;9.402;2023-05-07T09:13:53;17.50;99.90
15959;DHT22;8078;47.822;9.402;2023-05-07T09:16:21;16.80;99.90
15959;DHT22;8078;47.822;9.402;2023-05-07T09:18:51;17.30;99.90
15959;DHT22;8078;47.822;9.402;2023-05-07T09:21:18;17.10;99.90
15959;DHT22;8078;47.822;9.402;2023-05-07T09:23:44;17.30;99.90
15959;DHT22;8078;47.822;9.402;2023-05-07T09:26:09;17.00;99.90
15959;DHT22;8078;47.822;9.402;2023-05-07T09:28:41;16.80;99.90
15959;DHT22;8078;47.822;9.402;2023-05-07T09:31:07;16.80;99.90
15959;DHT22;8078;47.822;9.402;2023-05-07T09:33:33;16.80;99.90
15959;DHT22;8078;47.822;9.402;2023-05-07T09:36:01;16.90;99.90
15959;DHT22;8078;47.822;9.402;2023-05-07T09:38:27;17.40;99.90
15959;DHT22;8078;47.822;9.402;2023-05-07T09:41:11;18.00;99.90
15959;DHT22;8078;47.822;9.402;2023-05-07T09:43:38;17.40;99.90
15959;DHT22;8078;47.822;9.402;2023-05-07T09:46:11;17.60;99.90
15959;DHT22;8078;47.822;9.402;2023-05-07T09:48:38;17.70;99.90
15959;DHT22;8078;47.822;9.402;2023-05-07T09:51:30;17.20;99.90
15959;DHT22;8078;47.822;9.402;2023-05-07T09:53:57;17.30;99.90
15959;DHT22;8078;47.822;9.402;2023-05-07T09:56:25;17.50;99.90
15959;DHT22;8078;47.822;9.402;2023-05-07T09:58:53;17.30;99.90
15959;DHT22;8078;47.822;9.402;2023-05-07T10:01:19;18.10;99.90
15959;DHT22;8078;47.822;9.402;2023-05-07T10:03:48;17.40;99.90
15959;DHT22;8078;47.822;9.402;2023-05-07T10:06:15;18.30;99.90
15959;DHT22;8078;47.822;9.402;2023-05-07T10:08:43;18.80;99.90
15959;DHT22;8078;47.822;9.402;2023-05-07T10:11:09;18.00;99.90
15959;DHT22;8078;47.822;9.402;2023-05-07T10:13:35;18.30;99.90
15959;DHT22;8078;47.822;9.402;2023-05-07T10:16:03;18.20;99.90
15959;DHT22;8078;47.822;9.402;2023-05-07T10:18:31;18.40;99.90
15959;DHT22;8078;47.822;9.402;2023-05-07T10:21:11;18.90;99.90
15959;DHT22;8078;47.822;9.402;2023-05-07T10:23:40;19.50;99.90
15959;DHT22;8078;47.822;9.402;2023-05-07T10:26:07;19.70;99.90
15959;DHT22;8078;47.822;9.402;2023-05-07T10:28:38;19.60;99.90
15959;DHT22;8078;47.822;9.402;2023-05-07T10:31:31;20.60;99.90
15959;DHT22;8078;47.822;9.402;2023-05-07T10:33:59;19.60;99.90
15959;DHT22;8078;47.822;9.402;2023-05-07T10:36:26;20.00;99.90
15959;DHT22;8078;47.822;9.402;2023-05-07T10:38:53;19.60;99.90
15959;DHT22;8078;47.822;9.402;2023-05-07T10:41:19;19.00;99.90
15959;DHT22;8078;47.822;9.402;2023-05-07T10:43:46;18.50;99.90
15959;DHT22;8078;47.822;9.402;2023-05-07T10:46:15;18.40;99.90
15959;DHT22;8078;47.822;9.402;2023-05-07T10:51:30;18.60;99.90
15959;DHT22;8078;47.822;9.402;2023-05-07T10:56:38;19.60;99.90
15959;DHT22;8078;47.822;9.402;2023-05-07T11:01:58;20.20;99.90
15959;DHT22;8078;47.822;9.402;2023-05-07T11:04:24;21.10;99.90
15959;DHT22;8078;47.822;9.402;2023-05-07T11:15:35;18.70;99.90
15959;DHT22;8078;47.822;9.402;2023-05-07T11:18:01;18.80;99.90
15959;DHT22;8078;47.822;9.402;2023-05-07T11:20:45;19.00;99.90
15959;DHT22;8078;47.822;9.402;2023-05-07T11:26:10;19.20;99.90
15959;DHT22;8078;47.822;9.402;2023-05-07T11:28:41;19.70;99.90
15959;DHT22;8078;47.822;9.402;2023-05-07T11:31:11;20.90;99.90
15959;DHT22;8078;47.822;9.402;2023-05-07T11:33:37;21.80;99.90
15959;DHT22;8078;47.822;9.402;2023-05-07T11:36:04;22.50;99.90
15959;DHT22;8078;47.822;9.402;2023-05-07T11:38:30;22.20;99.90
15959;DHT22;8078;47.822;9.402;2023-05-07T11:40:58;23.10;99.90
15959;DHT22;8078;47.822;9.402;2023-05-07T11:43:26;23.40;99.90
15959;DHT22;8078;47.822;9.402;2023-05-07T11:45:52;20.90;99.90
15959;DHT22;8078;47.822;9.402;2023-05-07T11:48:18;20.80;99.90
15959;DHT22;8078;47.822;9.402;2023-05-07T11:51:03;21.40;99.90
15959;DHT22;8078;47.822;9.402;2023-05-07T11:53:39;21.00;99.90
15959;DHT22;8078;47.822;9.402;2023-05-07T11:56:13;21.00;99.90
15959;DHT22;8078;47.822;9.402;2023-05-07T11:58:40;20.50;99.90
15959;DHT22;8078;47.822;9.402;2023-05-07T12:01:08;21.00;99.90
15959;DHT22;8078;47.822;9.402;2023-05-07T12:03:35;21.50;99.90
15959;DHT22;8078;47.822;9.402;2023-05-07T12:06:01;20.80;99.90
15959;DHT22;8078;47.822;9.402;2023-05-07T12:08:27;20.90;99.90
15959;DHT22;8078;47.822;9.402;2023-05-07T12:10:55;21.00;99.90
15959;DHT22;8078;47.822;9.402;2023-05-07T12:13:22;20.80;99.90
15959;DHT22;8078;47.822;9.402;2023-05-07T12:15:55;21.30;99.90
15959;DHT22;8078;47.822;9.402;2023-05-07T12:18:22;21.50;99.90
15959;DHT22;8078;47.822;9.402;2023-05-07T12:20:49;21.20;99.90
15959;DHT22;8078;47.822;9.402;2023-05-07T12:23:15;21.60;99.90
15959;DHT22;8078;47.822;9.402;2023-05-07T12:25:43;22.50;99.90
15959;DHT22;8078;47.822;9.402;2023-05-07T12:28:16;23.30;99.90
15959;DHT22;8078;47.822;9.402;2023-05-07T12:30:43;22.50;99.90
15959;DHT22;8078;47.822;9.402;2023-05-07T12:33:10;22.40;99.90
15959;DHT22;8078;47.822;9.402;2023-05-07T12:35:44;22.90;99.90
15959;DHT22;8078;47.822;9.402;2023-05-07T12:38:14;21.20;99.90
15959;DHT22;8078;47.822;9.402;2023-05-07T12:40:46;20.40;99.90
15959;DHT22;8078;47.822;9.402;2023-05-07T12:43:24;20.10;99.90
15959;DHT22;8078;47.822;9.402;2023-05-07T12:45:52;19.90;99.90
15959;DHT22;8078;47.822;9.402;2023-05-07T12:48:19;20.00;99.90
15959;DHT22;8078;47.822;9.402;2023-05-07T12:50:55;19.60;99.90
15959;DHT22;8078;47.822;9.402;2023-05-07T12:53:23;19.40;99.90
15959;DHT22;8078;47.822;9.402;2023-05-07T12:55:51;20.00;99.90
15959;DHT22;8078;47.822;9.402;2023-05-07T12:58:20;20.20;99.90
15959;DHT22;8078;47.822;9.402;2023-05-07T13:00:50;19.70;99.90
15959;DHT22;8078;47.822;9.402;2023-05-07T13:03:30;19.60;99.90
15959;DHT22;8078;47.822;9.402;2023-05-07T13:06:02;19.80;99.90
15959;DHT22;8078;47.822;9.402;2023-05-07T13:08:37;19.60;99.90
15959;DHT22;8078;47.822;9.402;2023-05-07T13:11:07;19.50;99.90
15959;DHT22;8078;47.822;9.402;2023-05-07T13:13:34;19.40;99.90
15959;DHT22;8078;47.822;9.402;2023-05-07T13:16:01;19.20;99.90
15959;DHT22;8078;47.822;9.402;2023-05-07T13:18:28;19.00;99.90
15959;DHT22;8078;47.822;9.402;2023-05-07T13:20:54;18.80;99.90
15959;DHT22;8078;47.822;9.402;2023-05-07T13:23:20;19.10;99.90
15959;DHT22;8078;47.822;9.402;2023-05-07T13:25:45;19.20;99.90
15959;DHT22;8078;47.822;9.402;2023-05-07T13:28:11;19.40;99.90
15959;DHT22;8078;47.822;9.402;2023-05-07T13:30:37;19.60;99.90
15959;DHT22;8078;47.822;9.402;2023-05-07T13:33:03;20.10;99.90
15959;DHT22;8078;47.822;9.402;2023-05-07T13:35:29;20.10;99.90
15959;DHT22;8078;47.822;9.402;2023-05-07T13:37:55;20.60;99.90
15959;DHT22;8078;47.822;9.402;2023-05-07T13:40:21;20.30;99.90
15959;DHT22;8078;47.822;9.402;2023-05-07T13:42:47;20.20;99.90
15959;DHT22;8078;47.822;9.402;2023-05-07T13:45:13;20.10;99.90
15959;DHT22;8078;47.822;9.402;2023-05-07T13:47:40;20.40;99.90
15959;DHT22;8078;47.822;9.402;2023-05-07T13:50:10;20.80;99.90
15959;DHT22;8078;47.822;9.402;2023-05-07T13:52:37;20.20;99.90
15959;DHT22;8078;47.822;9.402;2023-05-07T13:55:03;20.50;99.90
15959;DHT22;8078;47.822;9.402;2023-05-07T13:57:29;20.70;99.90
15959;DHT22;8078;47.822;9.402;2023-05-07T13:59:55;21.10;99.90
15959;DHT22;8078;47.822;9.402;2023-05-07T14:02:20;21.60;99.90
15959;DHT22;8078;47.822;9.402;2023-05-07T14:04:46;22.70;99.90
15959;DHT22;8078;47.822;9.402;2023-05-07T14:07:11;22.20;99.90
15959;DHT22;8078;47.822;9.402;2023-05-07T14:09:37;21.90;99.90
15959;DHT22;8078;47.822;9.402;2023-05-07T14:12:03;21.70;99.90
15959;DHT22;8078;47.822;9.402;2023-05-07T14:14:28;22.40;99.90
15959;DHT22;8078;47.822;9.402;2023-05-07T14:16:54;22.80;99.90
15959;DHT22;8078;47.822;9.402;2023-05-07T14:19:19;22.80;99.90
15959;DHT22;8078;47.822;9.402;2023-05-07T14:21:45;22.60;99.90
15959;DHT22;8078;47.822;9.402;2023-05-07T14:24:11;21.90;99.90
15959;DHT22;8078;47.822;9.402;2023-05-07T14:26:36;20.80;99.90
15959;DHT22;8078;47.822;9.402;2023-05-07T14:29:02;20.30;99.90
15959;DHT22;8078;47.822;9.402;2023-05-07T14:31:28;19.90;99.90
15959;DHT22;8078;47.822;9.402;2023-05-07T14:33:54;20.00;99.90
15959;DHT22;8078;47.822;9.402;2023-05-07T14:36:20;19.90;99.90
15959;DHT22;8078;47.822;9.402;2023-05-07T14:38:46;19.90;99.90
15959;DHT22;8078;47.822;9.402;2023-05-07T14:41:12;20.00;99.90
15959;DHT22;8078;47.822;9.402;2023-05-07T14:43:38;20.00;99.90
15959;DHT22;8078;47.822;9.402;2023-05-07T14:46:04;19.80;99.90
15959;DHT22;8078;47.822;9.402;2023-05-07T14:48:29;19.70;99.90
15959;DHT22;8078;47.822;9.402;2023-05-07T14:50:55;19.00;99.90
15959;DHT22;8078;47.822;9.402;2023-05-07T14:53:21;18.80;99.90
15959;DHT22;8078;47.822;9.402;2023-05-07T14:55:48;18.60;99.90
15959;DHT22;8078;47.822;9.402;2023-05-07T14:58:13;18.20;99.90
15959;DHT22;8078;47.822;9.402;2023-05-07T15:00:39;18.00;99.90
15959;DHT22;8078;47.822;9.402;2023-05-07T15:03:09;17.80;99.90
15959;DHT22;8078;47.822;9.402;2023-05-07T15:05:36;17.60;99.90
15959;DHT22;8078;47.822;9.402;2023-05-07T15:08:01;17.40;99.90
15959;DHT22;8078;47.822;9.402;2023-05-07T15:10:27;17.30;99.90
15959;DHT22;8078;47.822;9.402;2023-05-07T15:12:53;17.00;99.90
15959;DHT22;8078;47.822;9.402;2023-05-07T15:15:18;17.00;99.90
15959;DHT22;8078;47.822;9.402;2023-05-07T15:17:44;17.00;99.90
15959;DHT22;8078;47.822;9.402;2023-05-07T15:20:10;17.00;99.90
15959;DHT22;8078;47.822;9.402;2023-05-07T15:22:36;17.00;99.90
15959;DHT22;8078;47.822;9.402;2023-05-07T15:25:03;17.00;99.90
15959;DHT22;8078;47.822;9.402;2023-05-07T15:27:29;16.90;99.90
15959;DHT22;8078;47.822;9.402;2023-05-07T15:29:56;16.80;99.90
15959;DHT22;8078;47.822;9.402;2023-05-07T15:32:22;16.80;99.90
15959;DHT22;8078;47.822;9.402;2023-05-07T15:34:47;16.90;99.90
15959;DHT22;8078;47.822;9.402;2023-05-07T15:37:13;17.40;99.90
15959;DHT22;8078;47.822;9.402;2023-05-07T15:39:39;17.80;99.90
15959;DHT22;8078;47.822;9.402;2023-05-07T15:42:04;17.90;99.90
15959;DHT22;8078;47.822;9.402;2023-05-07T15:44:30;17.80;99.90
15959;DHT22;8078;47.822;9.402;2023-05-07T15:46:58;17.70;99.90
15959;DHT22;8078;47.822;9.402;2023-05-07T15:49:24;17.60;99.90
15959;DHT22;8078;47.822;9.402;2023-05-07T15:51:50;17.50;99.90
15959;DHT22;8078;47.822;9.402;2023-05-07T15:54:16;17.80;99.90
15959;DHT22;8078;47.822;9.402;2023-05-07T15:56:45;18.00;99.90
15959;DHT22;8078;47.822;9.402;2023-05-07T15:59:11;18.00;99.90
15959;DHT22;8078;47.822;9.402;2023-05-07T16:01:37;17.90;99.90